createdAt,value
2017-09-25T00:02:25.526Z,82.80
2017-09-25T00:04:53.455Z,83.70
2017-09-25T00:07:21.341Z,81.90
2017-09-25T00:09:49.275Z,81.30
2017-09-25T00:12:17.927Z,80.90
2017-09-25T00:14:50.359Z,80.80
2017-09-25T00:17:18.244Z,83.90
2017-09-25T00:19:46.182Z,82.10
2017-09-25T00:22:14.070Z,84.10
2017-09-25T00:24:42.013Z,83.80
2017-09-25T00:27:10.667Z,82.90
2017-09-25T00:29:38.606Z,82.80
2017-09-25T00:32:06.521Z,82.70
2017-09-25T00:34:34.520Z,80.50
2017-09-25T00:37:02.433Z,81.60
2017-09-25T00:39:30.386Z,81.40
2017-09-25T00:41:58.283Z,80.80
2017-09-25T00:44:26.397Z,81.40
2017-09-25T00:46:54.302Z,81.10
2017-09-25T00:49:22.287Z,81.30
2017-09-25T00:51:50.193Z,81.00
2017-09-25T00:54:24.997Z,79.90
2017-09-25T00:56:52.913Z,79.80
2017-09-25T00:59:28.640Z,81.80
2017-09-25T01:02:09.179Z,82.10
2017-09-25T01:04:48.799Z,81.80
2017-09-25T01:07:16.679Z,81.10
2017-09-25T01:09:44.586Z,81.50
2017-09-25T01:12:12.552Z,80.00
2017-09-25T01:14:40.605Z,79.60
2017-09-25T01:17:08.520Z,82.00
2017-09-25T01:19:36.439Z,82.00
2017-09-25T01:22:04.434Z,79.30
2017-09-25T01:24:32.298Z,79.30
2017-09-25T01:27:00.229Z,81.00
2017-09-25T01:29:28.153Z,81.50
2017-09-25T01:31:56.908Z,81.90
2017-09-25T01:34:24.817Z,81.80
2017-09-25T01:36:52.734Z,81.50
2017-09-25T01:39:20.620Z,81.90
2017-09-25T01:41:48.608Z,85.30
2017-09-25T01:44:16.542Z,84.20
2017-09-25T01:46:44.473Z,84.30
2017-09-25T01:49:12.354Z,84.10
2017-09-25T01:51:40.297Z,83.10
2017-09-25T01:54:08.947Z,81.70
2017-09-25T01:56:36.875Z,81.70
2017-09-25T01:59:04.790Z,79.80
2017-09-25T02:01:32.731Z,80.80
2017-09-25T02:04:00.621Z,82.10
2017-09-25T02:06:28.560Z,81.70
2017-09-25T02:08:56.541Z,80.50
2017-09-25T02:11:24.444Z,82.90
2017-09-25T02:13:52.552Z,82.00
2017-09-25T02:16:20.429Z,80.70
2017-09-25T02:18:48.361Z,82.40
2017-09-25T02:21:16.246Z,82.00
2017-09-25T02:23:48.859Z,79.30
2017-09-25T02:26:16.770Z,79.20
2017-09-25T02:28:44.711Z,82.00
2017-09-25T02:31:12.601Z,82.20
2017-09-25T02:33:41.809Z,82.10
2017-09-25T02:36:11.047Z,82.90
2017-09-25T02:38:39.122Z,83.10
2017-09-25T02:41:07.065Z,82.60
2017-09-25T02:43:35.008Z,82.80
2017-09-25T02:46:02.894Z,82.10
2017-09-25T02:48:30.820Z,82.70
2017-09-25T02:50:58.716Z,81.30
2017-09-25T02:53:26.635Z,81.60
2017-09-25T02:55:54.505Z,83.30
2017-09-25T02:58:22.420Z,79.30
2017-09-25T03:00:50.299Z,79.60
2017-09-25T03:03:18.312Z,82.50
2017-09-25T03:05:46.181Z,82.80
2017-09-25T03:08:14.097Z,80.90
2017-09-25T03:10:41.972Z,81.00
2017-09-25T03:13:09.921Z,82.30
2017-09-25T03:15:37.793Z,81.30
2017-09-25T03:18:05.676Z,79.90
2017-09-25T03:20:33.610Z,80.20
2017-09-25T03:23:01.566Z,81.40
2017-09-25T03:25:35.812Z,82.60
2017-09-25T03:28:03.693Z,80.80
2017-09-25T03:30:31.601Z,82.10
2017-09-25T03:32:59.471Z,82.90
2017-09-25T03:35:27.398Z,80.80
2017-09-25T03:37:55.328Z,80.80
2017-09-25T03:40:23.249Z,80.20
2017-09-25T03:42:51.112Z,80.40
2017-09-25T03:45:19.035Z,81.70
2017-09-25T03:47:50.629Z,80.30
2017-09-25T03:50:18.575Z,82.10
2017-09-25T03:52:46.450Z,83.00
2017-09-25T03:55:14.591Z,82.80
2017-09-25T03:57:42.476Z,83.30
2017-09-25T04:00:10.508Z,82.70
2017-09-25T04:02:38.389Z,82.00
2017-09-25T04:05:06.366Z,82.60
2017-09-25T04:07:34.236Z,80.90
2017-09-25T04:10:02.184Z,80.40
2017-09-25T04:12:30.070Z,81.10
2017-09-25T04:14:58.005Z,82.00
2017-09-25T04:17:25.880Z,81.20
2017-09-25T04:19:53.800Z,80.60
2017-09-25T04:22:21.689Z,81.50
2017-09-25T04:24:55.781Z,81.20
2017-09-25T04:27:23.670Z,80.10
2017-09-25T04:29:51.587Z,81.70
2017-09-25T04:32:20.280Z,80.80
2017-09-25T04:34:48.170Z,80.90
2017-09-25T04:37:16.100Z,80.80
2017-09-25T04:39:45.815Z,81.60
2017-09-25T04:42:13.901Z,81.60
2017-09-25T04:44:41.770Z,80.40
2017-09-25T04:47:09.692Z,79.70
2017-09-25T04:49:37.571Z,82.10
2017-09-25T04:52:05.507Z,81.40
2017-09-25T04:54:36.526Z,80.10
2017-09-25T04:57:04.452Z,81.10
2017-09-25T04:59:32.332Z,81.10
2017-09-25T05:02:00.256Z,80.90
2017-09-25T05:04:28.150Z,81.00
2017-09-25T05:06:56.076Z,82.50
2017-09-25T05:09:23.951Z,82.00
2017-09-25T05:11:51.871Z,80.90
2017-09-25T05:14:19.943Z,81.00
2017-09-25T05:16:47.935Z,80.40
2017-09-25T05:19:15.812Z,79.30
2017-09-25T05:21:43.735Z,79.30
2017-09-25T05:24:11.622Z,80.70
2017-09-25T05:26:39.548Z,79.40
2017-09-25T05:29:07.428Z,81.30
2017-09-25T05:31:35.365Z,80.00
2017-09-25T05:34:03.235Z,80.20
2017-09-25T05:36:31.157Z,81.10
2017-09-25T05:38:59.092Z,81.00
2017-09-25T05:41:26.994Z,82.60
2017-09-25T05:43:54.923Z,81.30
2017-09-25T05:46:22.829Z,81.70
2017-09-25T05:48:50.760Z,80.60
2017-09-25T05:51:18.651Z,79.90
2017-09-25T05:53:46.691Z,82.20
2017-09-25T05:56:14.581Z,79.70
2017-09-25T05:58:42.537Z,79.60
2017-09-25T06:01:10.435Z,78.30
2017-09-25T06:03:38.372Z,78.10
2017-09-25T06:06:06.239Z,78.40
2017-09-25T06:08:34.179Z,79.10
2017-09-25T06:11:02.826Z,77.80
2017-09-25T06:13:30.814Z,77.80
2017-09-25T06:15:58.687Z,78.70
2017-09-25T06:18:26.611Z,78.40
2017-09-25T06:20:54.486Z,78.60
2017-09-25T06:23:28.165Z,78.80
2017-09-25T06:25:56.060Z,78.20
2017-09-25T06:28:23.996Z,78.70
2017-09-25T06:30:51.963Z,79.60
2017-09-25T06:33:19.901Z,80.30
2017-09-25T06:35:47.782Z,80.00
2017-09-25T06:38:15.733Z,77.20
2017-09-25T06:40:43.635Z,77.20
2017-09-25T06:43:11.619Z,76.80
2017-09-25T06:45:39.498Z,78.00
2017-09-25T06:48:07.381Z,77.50
2017-09-25T06:50:35.386Z,77.00
2017-09-25T06:53:03.328Z,75.60
2017-09-25T06:55:31.272Z,75.50
2017-09-25T06:57:59.172Z,73.00
2017-09-25T07:00:27.122Z,71.30
2017-09-25T07:02:55.022Z,68.80
2017-09-25T07:05:23.000Z,67.70
2017-09-25T07:07:50.897Z,63.40
2017-09-25T07:10:18.837Z,59.50
2017-09-25T07:12:46.737Z,59.20
2017-09-25T07:15:22.854Z,59.40
2017-09-25T07:17:50.740Z,60.80
2017-09-25T07:20:18.686Z,62.90
2017-09-25T07:22:46.572Z,63.30
2017-09-25T07:25:14.525Z,63.20
2017-09-25T07:27:42.436Z,61.90
2017-09-25T07:30:10.382Z,63.40
2017-09-25T07:32:38.274Z,63.90
2017-09-25T07:35:06.215Z,64.40
2017-09-25T07:37:34.112Z,64.30
2017-09-25T07:40:02.064Z,67.50
2017-09-25T07:42:29.965Z,67.60
2017-09-25T07:44:57.898Z,69.70
2017-09-25T07:47:26.585Z,72.20
2017-09-25T07:49:54.545Z,72.10
2017-09-25T07:52:29.658Z,72.30
2017-09-25T07:55:00.669Z,71.30
2017-09-25T07:57:28.839Z,71.30
2017-09-25T07:59:56.742Z,70.20
2017-09-25T08:02:25.729Z,71.50
2017-09-25T08:04:57.512Z,71.80
2017-09-25T08:07:25.459Z,71.30
2017-09-25T08:09:53.364Z,70.20
2017-09-25T08:12:21.305Z,69.00
2017-09-25T08:14:54.269Z,65.80
2017-09-25T08:17:22.209Z,65.80
2017-09-25T08:19:50.106Z,64.80
2017-09-25T08:22:22.157Z,62.00
2017-09-25T08:24:50.070Z,61.90
2017-09-25T08:27:18.020Z,62.20
2017-09-25T08:29:45.912Z,60.80
2017-09-25T08:32:13.854Z,62.00
2017-09-25T08:34:41.747Z,59.80
2017-09-25T08:37:09.695Z,61.20
2017-09-25T08:39:37.596Z,61.40
2017-09-25T08:42:05.587Z,62.60
2017-09-25T08:44:33.637Z,60.40
2017-09-25T08:47:01.564Z,57.20
2017-09-25T08:49:29.463Z,52.90
2017-09-25T08:51:57.401Z,51.80
2017-09-25T08:54:25.355Z,49.20
2017-09-25T08:56:54.069Z,48.30
2017-09-25T08:59:21.961Z,48.20
2017-09-25T09:01:49.915Z,49.60
2017-09-25T09:04:17.819Z,49.00
2017-09-25T09:06:45.839Z,49.10
2017-09-25T09:09:13.733Z,50.30
2017-09-25T09:11:42.186Z,51.00
2017-09-25T09:14:10.120Z,49.10
2017-09-25T09:16:40.631Z,50.00
2017-09-25T09:19:08.569Z,50.50
2017-09-25T09:21:36.456Z,50.30
2017-09-25T09:24:04.386Z,47.70
2017-09-25T09:26:32.286Z,45.30
2017-09-25T09:29:00.219Z,43.60
2017-09-25T09:31:28.098Z,42.30
2017-09-25T09:34:00.192Z,41.00
2017-09-25T09:36:28.209Z,41.60
2017-09-25T09:38:56.905Z,39.60
2017-09-25T09:41:24.805Z,39.50
2017-09-25T09:43:52.750Z,40.10
2017-09-25T09:46:20.664Z,39.80
2017-09-25T09:48:48.609Z,40.40
2017-09-25T09:51:16.528Z,39.20
2017-09-25T09:53:44.477Z,38.50
2017-09-25T09:56:12.399Z,39.90
2017-09-25T09:58:40.338Z,40.40
2017-09-25T10:01:09.208Z,40.60
2017-09-25T10:03:37.289Z,42.20
2017-09-25T10:06:05.221Z,41.50
2017-09-25T10:08:33.178Z,43.30
2017-09-25T10:11:01.095Z,41.30
2017-09-25T10:13:29.047Z,41.30
2017-09-25T10:15:57.001Z,43.20
2017-09-25T10:18:25.279Z,44.30
2017-09-25T10:20:53.227Z,43.90
2017-09-25T10:23:21.116Z,45.20
2017-09-25T10:25:49.059Z,46.50
2017-09-25T10:28:16.966Z,47.50
2017-09-25T10:30:44.920Z,48.20
2017-09-25T10:33:12.846Z,49.10
2017-09-25T10:35:43.191Z,49.40
2017-09-25T10:38:13.041Z,49.90
2017-09-25T10:40:44.463Z,48.80
2017-09-25T10:43:12.383Z,48.70
2017-09-25T10:45:40.356Z,47.80
2017-09-25T10:48:08.235Z,47.90
2017-09-25T10:50:38.997Z,47.70
2017-09-25T10:53:06.892Z,48.10
2017-09-25T10:55:35.308Z,48.40
2017-09-25T10:58:06.136Z,48.90
2017-09-25T11:00:36.623Z,48.90
2017-09-25T11:03:04.921Z,49.70
2017-09-25T11:05:32.846Z,50.80
2017-09-25T11:08:00.818Z,51.00
2017-09-25T11:10:31.084Z,52.60
2017-09-25T11:13:01.029Z,53.70
2017-09-25T11:15:28.964Z,53.70
2017-09-25T11:17:58.798Z,54.50
2017-09-25T11:20:26.751Z,55.30
2017-09-25T11:22:57.563Z,55.80
2017-09-25T11:25:28.640Z,56.40
2017-09-25T11:27:56.516Z,56.30
2017-09-25T11:30:27.258Z,57.60
2017-09-25T11:32:55.180Z,55.80
2017-09-25T11:35:27.263Z,56.30
2017-09-25T11:37:55.151Z,56.30
2017-09-25T11:40:23.037Z,56.50
2017-09-25T11:42:51.043Z,55.70
2017-09-25T11:45:18.959Z,57.30
2017-09-25T11:47:47.061Z,57.40
2017-09-25T11:50:14.946Z,57.00
2017-09-25T11:52:42.885Z,58.30
2017-09-25T11:55:10.770Z,56.60
2017-09-25T11:57:38.705Z,57.50
2017-09-25T12:00:06.621Z,58.10
2017-09-25T12:02:34.570Z,58.60
2017-09-25T12:05:02.578Z,56.60
2017-09-25T12:07:31.332Z,56.90
2017-09-25T12:09:59.215Z,56.80
2017-09-25T12:12:27.165Z,56.20
2017-09-25T12:14:55.076Z,56.60
2017-09-25T12:17:23.019Z,56.70
2017-09-25T12:19:50.912Z,57.30
2017-09-25T12:22:19.641Z,56.80
2017-09-25T12:24:47.531Z,56.80
2017-09-25T12:27:15.474Z,55.60
2017-09-25T12:29:43.360Z,55.50
2017-09-25T12:32:11.295Z,56.30
2017-09-25T12:34:41.307Z,60.40
2017-09-25T12:37:09.250Z,61.90
2017-09-25T12:39:37.144Z,62.20
2017-09-25T12:42:05.034Z,63.60
2017-09-25T12:44:32.980Z,61.30
2017-09-25T12:47:00.871Z,63.20
2017-09-25T12:49:28.815Z,64.90
2017-09-25T12:51:56.696Z,61.40
2017-09-25T12:54:24.633Z,62.60
2017-09-25T12:56:53.303Z,66.80
2017-09-25T12:59:21.393Z,66.70
2017-09-25T13:01:50.071Z,67.30
2017-09-25T13:04:18.202Z,67.20
2017-09-25T13:06:46.095Z,68.30
2017-09-25T13:09:14.057Z,67.80
2017-09-25T13:11:41.950Z,67.40
2017-09-25T13:14:09.895Z,70.00
2017-09-25T13:16:37.802Z,71.10
2017-09-25T13:19:05.736Z,70.70
2017-09-25T13:21:33.623Z,70.90
2017-09-25T13:24:01.587Z,68.60
2017-09-25T13:26:29.474Z,71.00
2017-09-25T13:28:57.631Z,72.00
2017-09-25T13:31:25.530Z,71.20
2017-09-25T13:33:53.524Z,69.90
2017-09-25T13:36:21.452Z,67.50
2017-09-25T13:38:49.445Z,68.20
2017-09-25T13:41:17.325Z,67.90
2017-09-25T13:43:45.260Z,67.10
2017-09-25T13:46:13.565Z,66.10
2017-09-25T13:48:41.464Z,65.30
2017-09-25T13:51:09.419Z,67.20
2017-09-25T13:53:37.327Z,68.90
2017-09-25T13:56:05.258Z,70.40
2017-09-25T14:03:43.352Z,70.70
2017-09-25T14:06:12.084Z,69.30
2017-09-25T14:08:39.973Z,69.30
2017-09-25T14:11:07.891Z,70.40
2017-09-25T14:13:35.809Z,70.50
2017-09-25T14:16:04.807Z,68.30
2017-09-25T14:18:32.723Z,68.30
2017-09-25T14:21:00.672Z,68.60
2017-09-25T14:23:30.889Z,67.80
2017-09-25T14:25:58.977Z,67.60
2017-09-25T14:28:27.185Z,65.00
2017-09-25T14:30:55.212Z,63.80
2017-09-25T14:33:25.373Z,66.30
2017-09-25T14:35:53.312Z,62.90
2017-09-25T14:38:21.773Z,63.10
2017-09-25T14:40:49.727Z,62.80
2017-09-25T14:43:24.642Z,60.50
2017-09-25T14:45:52.598Z,63.30
2017-09-25T14:48:20.498Z,64.20
2017-09-25T14:50:48.399Z,62.30
2017-09-25T14:53:16.325Z,63.80
2017-09-25T14:55:45.390Z,62.40
2017-09-25T14:58:14.210Z,63.10
2017-09-25T15:00:43.493Z,63.90
2017-09-25T15:03:11.530Z,64.00
2017-09-25T15:05:40.526Z,61.30
2017-09-25T15:08:11.844Z,61.50
2017-09-25T15:10:39.720Z,63.00
2017-09-25T15:13:07.671Z,63.20
2017-09-25T15:15:36.702Z,60.00
2017-09-25T15:18:04.657Z,58.00
2017-09-25T15:20:32.550Z,61.80
2017-09-25T15:23:01.506Z,62.50
2017-09-25T15:25:29.454Z,62.40
2017-09-25T15:27:57.689Z,64.30
2017-09-25T15:30:25.585Z,63.00
2017-09-25T15:32:53.566Z,64.90
2017-09-25T15:35:22.213Z,65.60
2017-09-25T15:37:51.639Z,64.60
2017-09-25T15:40:19.556Z,64.60
2017-09-25T15:42:47.953Z,66.50
2017-09-25T15:45:16.992Z,67.70
2017-09-25T15:47:45.169Z,70.50
2017-09-25T15:50:13.154Z,71.70
2017-09-25T15:52:41.398Z,73.10
2017-09-25T15:55:13.849Z,68.40
2017-09-25T15:57:41.777Z,68.40
2017-09-25T16:00:09.659Z,69.20
2017-09-25T16:02:38.306Z,69.10
2017-09-25T16:05:06.247Z,68.90
2017-09-25T16:07:34.198Z,74.00
2017-09-25T16:10:02.125Z,74.30
2017-09-25T16:12:30.459Z,74.50
2017-09-25T16:14:58.642Z,74.00
2017-09-25T16:17:26.545Z,74.10
2017-09-25T16:19:54.513Z,74.40
2017-09-25T16:22:22.421Z,74.10
2017-09-25T16:24:50.461Z,74.50
2017-09-25T16:27:18.374Z,74.60
2017-09-25T16:29:46.318Z,74.10
2017-09-25T16:32:14.554Z,74.00
2017-09-25T16:34:42.517Z,74.30
2017-09-25T16:37:10.512Z,75.70
2017-09-25T16:39:38.477Z,76.50
2017-09-25T16:42:06.444Z,76.20
2017-09-25T16:44:34.389Z,76.80
2017-09-25T16:47:02.336Z,76.80
2017-09-25T16:49:30.302Z,76.00
2017-09-25T16:51:58.200Z,76.80
2017-09-25T16:54:27.026Z,77.20
2017-09-25T16:56:54.999Z,77.00
2017-09-25T16:59:23.008Z,77.30
2017-09-25T17:01:50.969Z,77.40
2017-09-25T17:04:18.976Z,78.40
2017-09-25T17:06:47.654Z,77.40
2017-09-25T17:09:15.604Z,77.40
2017-09-25T17:11:43.498Z,77.60
2017-09-25T17:14:12.213Z,79.20
2017-09-25T17:16:40.113Z,79.10
2017-09-25T17:19:08.085Z,80.00
2017-09-25T17:21:36.011Z,80.20
2017-09-25T17:24:11.244Z,79.80
2017-09-25T17:26:39.905Z,79.40
2017-09-25T17:29:07.886Z,79.30
2017-09-25T17:31:35.829Z,79.30
2017-09-25T17:34:03.822Z,79.40
2017-09-25T17:36:31.787Z,79.80
2017-09-25T17:38:59.728Z,79.80
2017-09-25T17:41:27.716Z,80.00
2017-09-25T17:43:55.619Z,81.20
2017-09-25T17:46:24.346Z,81.60
2017-09-25T17:48:52.321Z,81.50
2017-09-25T17:51:20.249Z,81.80
2017-09-25T17:53:49.320Z,81.20
2017-09-25T17:56:17.293Z,80.80
2017-09-25T17:58:45.181Z,80.90
2017-09-25T18:01:13.903Z,81.50
2017-09-25T18:03:41.809Z,81.30
2017-09-25T18:06:09.772Z,82.30
2017-09-25T18:08:37.666Z,82.90
2017-09-25T18:11:06.734Z,82.60
2017-09-25T18:13:34.653Z,82.50
2017-09-25T18:16:02.609Z,82.10
2017-09-25T18:18:31.440Z,83.10
2017-09-25T18:20:59.405Z,83.00
2017-09-25T18:23:27.435Z,82.90
2017-09-25T18:25:56.176Z,83.10
2017-09-25T18:28:24.228Z,83.00
2017-09-25T18:30:52.240Z,83.10
2017-09-25T18:33:21.299Z,82.80
2017-09-25T18:35:49.202Z,82.40
2017-09-25T18:38:17.142Z,82.90
2017-09-25T18:40:45.062Z,83.50
2017-09-25T18:43:13.047Z,83.60
2017-09-25T18:45:41.758Z,84.00
2017-09-25T18:48:09.713Z,84.00
2017-09-25T18:50:38.482Z,83.00
2017-09-25T18:53:06.657Z,83.00
2017-09-25T18:55:34.573Z,83.40
2017-09-25T18:58:02.527Z,83.30
2017-09-25T19:00:30.431Z,83.90
2017-09-25T19:02:58.371Z,82.90
2017-09-25T19:05:26.256Z,82.60
2017-09-25T19:07:54.199Z,83.00
2017-09-25T19:10:22.092Z,83.00
2017-09-25T19:12:50.053Z,84.20
2017-09-25T19:15:22.503Z,83.60
2017-09-25T19:17:51.212Z,84.30
2017-09-25T19:20:23.703Z,84.30
2017-09-25T19:22:54.612Z,84.10
2017-09-25T19:25:22.519Z,84.50
2017-09-25T19:27:53.158Z,83.70
2017-09-25T19:30:21.080Z,83.00
2017-09-25T19:32:49.023Z,82.10
2017-09-25T19:35:16.924Z,82.00
2017-09-25T19:37:44.890Z,82.00
2017-09-25T19:40:13.640Z,82.20
2017-09-25T19:42:41.651Z,83.10
2017-09-25T19:45:09.596Z,83.30
2017-09-25T19:47:38.987Z,83.90
2017-09-25T19:53:09.966Z,82.70
2017-09-25T19:55:41.508Z,82.60
2017-09-25T19:58:09.570Z,82.60
2017-09-25T20:00:37.616Z,82.00
2017-09-25T20:03:05.610Z,82.60
2017-09-25T20:05:33.622Z,83.60
2017-09-25T20:08:01.607Z,84.00
2017-09-25T20:10:31.253Z,82.90
2017-09-25T20:12:59.237Z,83.10
2017-09-25T20:15:32.765Z,83.80
2017-09-25T20:18:00.749Z,84.10
2017-09-25T20:20:28.768Z,83.40
2017-09-25T20:22:56.777Z,83.50
2017-09-25T20:25:33.961Z,84.00
2017-09-25T20:28:01.878Z,84.00
2017-09-25T20:30:29.908Z,83.70
2017-09-25T20:32:57.870Z,83.60
2017-09-25T20:35:26.700Z,85.10
2017-09-25T20:37:54.692Z,85.00
2017-09-25T20:40:24.629Z,85.40
2017-09-25T20:42:54.518Z,85.10
2017-09-25T20:45:23.208Z,84.20
2017-09-25T20:47:51.235Z,84.20
2017-09-25T20:50:19.185Z,83.90
2017-09-25T20:52:47.942Z,84.00
2017-09-25T20:55:16.008Z,84.00
2017-09-25T20:57:44.004Z,83.70
2017-09-25T21:00:12.802Z,84.50
2017-09-25T21:02:40.816Z,83.80
2017-09-25T21:05:08.811Z,83.90
2017-09-25T21:07:36.888Z,83.00
2017-09-25T21:10:04.830Z,83.00
2017-09-25T21:12:32.879Z,84.00
2017-09-25T21:15:02.158Z,84.50
2017-09-25T21:17:30.228Z,83.90
2017-09-25T21:19:58.231Z,83.50
2017-09-25T21:22:26.267Z,83.30
2017-09-25T21:24:54.343Z,83.20
2017-09-25T21:27:25.547Z,81.40
2017-09-25T21:29:53.615Z,81.30
2017-09-25T21:32:21.553Z,83.30
2017-09-25T21:34:53.487Z,83.00
2017-09-25T21:37:21.580Z,82.90
2017-09-25T21:39:50.383Z,84.90
2017-09-25T21:42:18.411Z,84.90
2017-09-25T21:44:46.367Z,83.50
2017-09-25T21:47:14.374Z,82.60
2017-09-25T21:49:42.319Z,82.90
2017-09-25T21:52:10.289Z,82.60
2017-09-25T21:54:38.232Z,83.90
2017-09-25T21:57:06.983Z,82.90
2017-09-25T21:59:35.690Z,83.90
2017-09-25T22:02:03.710Z,83.80
2017-09-25T22:04:31.895Z,82.60
2017-09-25T22:06:59.885Z,83.20
2017-09-25T22:09:28.597Z,83.30
2017-09-25T22:11:56.538Z,83.30
2017-09-25T22:14:25.298Z,83.20
2017-09-25T22:16:53.250Z,83.00
2017-09-25T22:19:21.241Z,83.20
2017-09-25T22:21:49.186Z,83.60
2017-09-25T22:24:17.186Z,84.70
2017-09-25T22:26:47.564Z,84.90
2017-09-25T22:29:15.633Z,84.70
2017-09-25T22:31:43.611Z,84.20
2017-09-25T22:34:11.640Z,83.70
2017-09-25T22:36:39.629Z,84.00
2017-09-25T22:39:07.666Z,83.50
2017-09-25T22:41:35.693Z,83.10
2017-09-25T22:44:19.433Z,83.10
2017-09-25T22:46:47.383Z,82.30
2017-09-25T22:49:15.469Z,82.80
2017-09-25T22:51:43.465Z,83.00
2017-09-25T22:54:11.475Z,83.40
2017-09-25T22:56:39.521Z,83.00
2017-09-25T22:59:07.561Z,83.10
2017-09-25T23:01:35.546Z,83.30
2017-09-25T23:04:08.506Z,82.80
2017-09-25T23:06:36.499Z,83.00
2017-09-25T23:09:04.625Z,83.60
2017-09-25T23:11:35.066Z,83.60
2017-09-25T23:14:03.936Z,83.50
2017-09-25T23:16:31.900Z,83.50
2017-09-25T23:18:59.937Z,83.40
2017-09-25T23:21:27.923Z,84.00
2017-09-25T23:23:55.862Z,83.90
2017-09-25T23:26:23.925Z,84.00
2017-09-25T23:28:51.915Z,84.00
2017-09-25T23:31:20.825Z,83.40
2017-09-25T23:33:48.759Z,84.00
2017-09-25T23:36:16.767Z,84.10
2017-09-25T23:38:44.699Z,84.20
2017-09-25T23:41:12.760Z,84.00
2017-09-25T23:43:40.707Z,84.20
2017-09-25T23:46:08.682Z,83.50
2017-09-25T23:48:36.655Z,83.50
2017-09-25T23:51:05.398Z,83.70
2017-09-25T23:53:33.445Z,83.70
2017-09-25T23:56:01.443Z,84.20
2017-09-25T23:58:29.389Z,84.40
